Terminal Aerodrome Forecast
Issued by NWS

Home | Current Version | Previous Version | Text Only | Print | Product List | Glossary On
Versions: 1 2 3 4 5 6 7 8 9 10 11 12
151
FTUS43 KMQT 240527
TAFSAW
TAF
KSAW 240527Z 2406/2506 20006KT P6SM SCT200
     FM241000 20005KT P6SM VCSH BKN100
     FM241600 21005KT P6SM -SHRA BKN050
     FM241800 VRB03KT P6SM VCSH BKN040
     FM242000 32003KT P6SM VCSH BKN030
     FM242200 36004KT P6SM VCSH BKN020
     FM250000 01005KT P6SM SCT010
     FM250400 01007KT 3SM BR BKN003=

USA.gov is the U.S. government's official web portal to all federal, state and local government web resources and services.